Alts de San Jose, Puerto Rico
Current Conditions -  °F | °C
As of 9:50 PM on Tuesday 25 Nov 2014 (Local Time) from TJPS Reporting Station
Few Clouds Few Clouds  
Wind Chill: 73°   Ceiling: Unl
Heat Index: 73°   Visibility: 8mi
Dew Point: 68°   Wind: 6mph
Humidity: 83%   Direction: 30°NNE
Pressure: 29.98"   Gusts: NA
Location:  18.0664°N, 66.9568°W
Report Text: TJPS 260150Z 03005KT 8SM FEW030 23/20 A2998
Loading
Personal Weather Stations






























Interactive Weather Map New forecast layout! Learn more

10-Day Weather Forecast

Advertisements
Track Severe Weather on mobile